createdAt,value
2023-02-16T00:01:24.830Z,45.70
2023-02-16T00:11:24.872Z,38.60
2023-02-16T00:21:25.193Z,36.20
2023-02-16T00:31:25.310Z,41.10
2023-02-16T00:41:25.574Z,33.80
2023-02-16T00:51:26.561Z,36.20
2023-02-16T01:01:25.960Z,40.50
2023-02-16T01:11:26.012Z,39.90
2023-02-16T01:21:26.322Z,34.60
2023-02-16T01:31:26.461Z,36.30
2023-02-16T01:41:26.576Z,34.80
2023-02-16T01:51:26.611Z,33.50
2023-02-16T02:01:26.936Z,33.00
2023-02-16T02:11:27.000Z,33.50
2023-02-16T02:21:27.322Z,32.40
2023-02-16T02:31:27.451Z,31.60
2023-02-16T02:41:27.608Z,33.20
2023-02-16T02:51:27.628Z,35.20
2023-02-16T03:01:27.994Z,32.20
2023-02-16T03:11:28.093Z,30.10
2023-02-16T03:21:28.458Z,29.70
2023-02-16T03:31:28.619Z,30.50
2023-02-16T03:41:28.794Z,28.30
2023-02-16T03:51:28.834Z,31.50
2023-02-16T04:01:29.172Z,32.90
2023-02-16T04:11:29.213Z,31.70
2023-02-16T04:21:29.534Z,30.80
2023-02-16T04:31:29.693Z,34.20
2023-02-16T04:41:29.898Z,34.90
2023-02-16T04:51:29.923Z,31.90
2023-02-16T05:01:30.225Z,29.40
2023-02-16T05:11:30.311Z,28.70
2023-02-16T05:21:30.643Z,27.30
2023-02-16T05:31:32.557Z,27.70
2023-02-16T05:41:30.921Z,28.70
2023-02-16T05:51:30.971Z,27.20
2023-02-16T06:01:31.288Z,24.90
2023-02-16T06:11:31.324Z,25.70
2023-02-16T06:21:31.666Z,26.40
2023-02-16T06:31:33.870Z,24.70
2023-02-16T06:41:32.117Z,26.00
2023-02-16T06:51:32.108Z,45.50
2023-02-16T07:01:32.150Z,51.00
2023-02-16T07:11:32.483Z,29.70
2023-02-16T07:21:34.660Z,27.00
2023-02-16T07:31:33.869Z,27.80
2023-02-16T07:41:32.925Z,28.00
2023-02-16T07:51:33.238Z,22.80
2023-02-16T08:01:33.299Z,23.60
2023-02-16T08:11:34.618Z,22.10
2023-02-16T08:21:33.668Z,36.10
2023-02-16T08:31:34.080Z,28.60
2023-02-16T08:41:34.006Z,31.10
2023-02-16T08:51:34.459Z,26.10
2023-02-16T09:01:34.555Z,29.40
2023-02-16T09:11:37.878Z,51.60
2023-02-16T09:21:34.789Z,30.70
2023-02-16T09:31:34.979Z,26.50
2023-02-16T09:41:35.043Z,28.10
2023-02-16T09:51:35.342Z,23.80
2023-02-16T10:01:35.425Z,25.60
2023-02-16T10:11:35.512Z,17.50
2023-02-16T10:21:35.722Z,19.50
2023-02-16T10:31:36.087Z,16.60
2023-02-16T10:41:36.181Z,16.00
2023-02-16T10:51:36.566Z,15.00
2023-02-16T11:01:36.639Z,12.90
2023-02-16T11:11:36.846Z,14.30
2023-02-16T11:21:36.920Z,14.00
2023-02-16T11:31:37.170Z,12.90
2023-02-16T11:41:37.357Z,11.70
2023-02-16T11:51:37.467Z,8.60
2023-02-16T12:01:37.599Z,13.70
2023-02-16T12:11:37.754Z,20.70
2023-02-16T12:21:37.824Z,14.20
2023-02-16T12:31:38.122Z,13.50
2023-02-16T12:41:38.134Z,14.30
2023-02-16T12:51:38.453Z,13.50
2023-02-16T13:01:38.591Z,14.70
2023-02-16T13:11:38.810Z,13.70
2023-02-16T13:21:50.538Z,13.30
2023-02-16T13:31:40.271Z,13.80
2023-02-16T13:41:39.413Z,12.10
2023-02-16T13:51:39.447Z,12.30
2023-02-16T14:01:39.775Z,11.30
2023-02-16T14:11:39.816Z,11.50
2023-02-16T14:21:40.146Z,15.30
2023-02-16T14:31:40.344Z,17.60
2023-02-16T14:41:40.547Z,17.40
2023-02-16T14:51:40.607Z,17.70
2023-02-16T15:01:40.883Z,16.60
2023-02-16T15:11:40.973Z,17.20
2023-02-16T15:21:41.253Z,16.20
2023-02-16T15:31:41.337Z,16.50
2023-02-16T15:41:41.804Z,16.70
2023-02-16T15:51:41.495Z,17.90
2023-02-16T16:01:41.777Z,19.90
2023-02-16T16:11:41.895Z,17.70
2023-02-16T16:21:42.261Z,19.50
2023-02-16T16:31:42.341Z,19.20
2023-02-16T16:41:42.310Z,20.20
2023-02-16T16:51:42.544Z,20.40
2023-02-16T17:01:42.923Z,18.20
2023-02-16T17:11:43.156Z,21.50
2023-02-16T17:21:43.468Z,32.70
2023-02-16T17:31:43.801Z,25.20
2023-02-16T17:41:43.878Z,24.70
2023-02-16T17:51:43.808Z,25.60
2023-02-16T18:01:44.035Z,23.20
2023-02-16T18:11:43.956Z,20.80
2023-02-16T18:21:44.260Z,19.50
2023-02-16T18:31:44.604Z,19.50
2023-02-16T18:41:44.929Z,19.20
2023-02-16T18:51:45.015Z,19.30
2023-02-16T19:01:45.036Z,14.00
2023-02-16T19:11:45.103Z,23.80
2023-02-16T19:21:46.558Z,20.50
2023-02-16T19:31:46.653Z,19.10
2023-02-16T19:41:49.439Z,17.70
2023-02-16T19:51:46.076Z,20.60
2023-02-16T20:01:47.302Z,16.60
2023-02-16T20:11:46.675Z,13.50
2023-02-16T20:21:46.727Z,10.40
2023-02-16T20:31:47.046Z,12.90
2023-02-16T20:41:46.828Z,6.90
2023-02-16T20:51:47.351Z,6.90
2023-02-16T21:01:47.401Z,8.30
2023-02-16T21:11:47.752Z,8.90
2023-02-16T21:21:47.982Z,8.20
2023-02-16T21:31:48.229Z,8.80
2023-02-16T21:41:49.205Z,8.70
2023-02-16T21:51:48.572Z,7.90
2023-02-16T22:01:48.752Z,6.80
2023-02-16T22:11:48.822Z,5.90
2023-02-16T22:21:48.927Z,4.60
2023-02-16T22:31:49.078Z,4.80
2023-02-16T22:41:49.209Z,3.00
2023-02-16T22:51:49.278Z,4.00
2023-02-16T23:01:49.363Z,5.30
2023-02-16T23:11:49.418Z,7.70
2023-02-16T23:21:49.752Z,6.60
2023-02-16T23:31:49.830Z,6.10
2023-02-16T23:41:50.112Z,4.40
2023-02-16T23:51:50.137Z,3.20
